Time;durP1;ratioP1;P1;durP2;ratioP2;P2;SDS_P1;SDS_P2;PMS_P1;PMS_P2;Temp;Humidity;BMP_temperature;BMP_pressure;BME280_temperature;BME280_humidity;BME280_pressure;Samples;Min_cycle;Max_cycle;Signal;HPM_P1;HPM_P2
2022/01/22 00:01:56;;;;;;;;;;;;;;;-144.99;100.00;52607.09;4998303;28;20004;-75
2022/01/22 00:04:22;;;;;;;;;;;;;;;-144.99;100.00;52552.03;5019831;28;19939;-75
2022/01/22 00:06:51;;;;;;;;;;;;;;;-144.99;100.00;52605.03;5020678;28;19921;-73
2022/01/22 00:09:24;;;;;;;;;;;;;;;-144.99;100.00;52590.78;5014207;28;19933;-74
2022/01/22 00:11:54;;;;;;;;;;;;;;;-144.99;100.00;52590.78;5028686;28;19927;-75
2022/01/22 00:14:25;;;;;;;;;;;;;;;-144.99;100.00;52584.66;5023466;28;20313;-74
2022/01/22 00:16:54;;;;;;;;;;;;;;;-144.99;100.00;52586.69;5033714;28;19968;-76
2022/01/22 00:19:20;;;;;;;;;;;;;;;-144.99;100.00;52603.00;5017307;28;20028;-76
2022/01/22 00:21:47;;;;;;;;;;;;;;;-144.99;100.00;52586.69;5034747;28;20271;-74
2022/01/22 00:24:14;;;;;;;;;;;;;;;-144.99;100.00;52582.63;5022644;28;20019;-75
2022/01/22 00:26:40;;;;;;;;;;;;;;;-144.99;100.00;52572.44;5034002;28;19952;-76
2022/01/22 00:29:11;;;;;;;;;;;;;;;-144.99;100.00;52572.44;5025705;28;20272;-75
2022/01/22 00:31:39;;;;;;;;;;;;;;;-144.99;100.00;52619.31;5017094;28;20348;-75
2022/01/22 00:34:07;;;;;;;;;;;;;;;-144.99;100.00;52594.84;5017808;28;19921;-75
2022/01/22 00:36:33;;;;;;;;;;;;;;;-144.99;100.00;52611.16;5031037;28;20012;-76
2022/01/22 00:39:00;;;;;;;;;;;;;;;-144.99;100.00;52578.53;5017096;28;19925;-75
2022/01/22 00:41:26;;;;;;;;;;;;;;;-144.99;100.00;52578.53;5026625;28;19940;-75
2022/01/22 00:43:53;;;;;;;;;;;;;;;-144.99;100.00;52562.25;5018785;28;19940;-76
2022/01/22 00:46:20;;;;;;;;;;;;;;;-144.99;100.00;52562.25;5028062;28;19937;-75
2022/01/22 00:48:46;;;;;;;;;;;;;;;-144.99;100.00;52578.53;5023163;28;19932;-74
2022/01/22 00:51:14;;;;;;;;;;;;;;;-144.99;100.00;52590.78;5028415;28;19921;-74
2022/01/22 00:53:40;;;;;;;;;;;;;;;-144.99;100.00;52584.66;5014047;28;19921;-73
2022/01/22 00:56:07;;;;;;;;;;;;;;;-144.99;100.00;52570.38;5020898;28;19921;-75
2022/01/22 00:58:33;;;;;;;;;;;;;;;-144.99;100.00;52607.09;5025964;28;20298;-74
2022/01/22 01:00:59;;;;;;;;;;;;;;;-144.99;100.00;52590.78;5012967;28;19975;-74
2022/01/22 01:03:30;;;;;;;;;;;;;;;-144.99;100.00;52617.28;5011931;28;19922;-75
2022/01/22 01:05:56;;;;;;;;;;;;;;;-144.99;100.00;52541.84;5022789;28;19921;-75
2022/01/22 01:08:27;;;;;;;;;;;;;;;-144.99;100.00;52574.47;5017124;28;20261;-74
2022/01/22 01:10:53;;;;;;;;;;;;;;;-144.99;100.00;52592.81;5017208;28;19950;-74
2022/01/22 01:13:20;;;;;;;;;;;;;;;-144.99;100.00;52609.13;5011320;28;19975;-72
2022/01/22 01:15:58;;;;;;;;;;;;;;;-144.99;100.00;52603.00;5024970;28;19935;-74
2022/01/22 01:32:15;;;;;;;;;;;;;;;-144.99;100.00;52590.78;5011019;28;19929;-73
2022/01/22 01:34:44;;;;;;;;;;;;;;;-144.99;100.00;52594.84;5012792;28;20434;-72
2022/01/22 01:37:12;;;;;;;;;;;;;;;-144.99;100.00;52554.09;5034345;28;19928;-74
2022/01/22 01:39:40;;;;;;;;;;;;;;;-144.99;100.00;52590.78;5014058;28;20370;-73
2022/01/22 01:42:10;;;;;;;;;;;;;;;-144.99;100.00;52588.75;5013645;28;19922;-73
2022/01/22 01:44:38;;;;;;;;;;;;;;;-144.99;100.00;52570.38;5010631;28;19925;-74
2022/01/22 01:47:06;;;;;;;;;;;;;;;-144.99;100.00;52588.75;5017234;28;19921;-73
2022/01/22 01:49:32;;;;;;;;;;;;;;;-144.99;100.00;52566.31;5012267;28;20009;-74
2022/01/22 01:52:02;;;;;;;;;;;;;;;-144.99;100.00;52603.00;5017683;28;19925;-74
2022/01/22 01:54:36;;;;;;;;;;;;;;;-144.99;100.00;52607.09;5010136;28;19925;-73
2022/01/22 01:59:49;;;;;;;;;;;;;;;-144.99;100.00;52635.63;5022519;28;19944;-73
2022/01/22 02:02:15;;;;;;;;;;;;;;;-144.99;100.00;52586.69;5022531;28;20013;-76
2022/01/22 02:04:42;;;;;;;;;;;;;;;-144.99;100.00;52582.63;5014377;28;20269;-78
2022/01/22 02:07:08;;;;;;;;;;;;;;;-144.99;100.00;52598.94;5017207;28;19925;-74
2022/01/22 02:09:38;;;;;;;;;;;;;;;-144.99;100.00;52574.47;5014780;28;20406;-75
2022/01/22 02:12:11;;;;;;;;;;;;;;;-144.99;100.00;52582.63;5015272;28;19921;-75
2022/01/22 02:25:41;;;;;;;;;;;;;;;-144.99;100.00;52566.31;5022956;28;19936;-73
2022/01/22 02:28:07;;;;;;;;;;;;;;;-144.99;100.00;52590.78;5026164;28;19925;-73
2022/01/22 02:30:37;;;;;;;;;;;;;;;-144.99;100.00;52580.59;5010332;28;19969;-74
2022/01/22 02:33:16;;;;;;;;;;;;;;;-144.99;100.00;52545.94;5010509;28;20283;-73
2022/01/22 02:35:49;;;;;;;;;;;;;;;-144.99;100.00;52584.66;5021181;28;19983;-73
2022/01/22 02:38:21;;;;;;;;;;;;;;;-144.99;100.00;52578.53;5011404;28;19927;-74
2022/01/22 02:40:49;;;;;;;;;;;;;;;-144.99;100.00;52566.31;5016491;28;19968;-74
2022/01/22 02:43:16;;;;;;;;;;;;;;;-144.99;100.00;52627.47;5011843;28;20339;-72
2022/01/22 02:45:43;;;;;;;;;;;;;;;-144.99;100.00;52566.31;5011296;28;19977;-73
2022/01/22 02:48:10;;;;;;;;;;;;;;;-144.99;100.00;52594.84;5017774;28;19929;-73
2022/01/22 02:50:36;;;;;;;;;;;;;;;-144.99;100.00;52590.78;5014013;28;19921;-72
2022/01/22 02:53:03;;;;;;;;;;;;;;;-144.99;100.00;52578.53;5014994;28;19932;-73
2022/01/22 02:55:31;;;;;;;;;;;;;;;-144.99;100.00;52570.38;5018044;28;19929;-73
2022/01/22 02:57:57;;;;;;;;;;;;;;;-144.99;100.00;52576.50;5022092;28;19987;-73
2022/01/22 03:00:25;;;;;;;;;;;;;;;-144.99;100.00;52576.50;5015765;28;20422;-74
2022/01/22 03:02:51;;;;;;;;;;;;;;;-144.99;100.00;52570.38;5009911;28;19967;-74
2022/01/22 03:05:18;;;;;;;;;;;;;;;-144.99;100.00;52600.97;5009327;28;20315;-74
2022/01/22 03:07:50;;;;;;;;;;;;;;;-144.99;100.00;52584.66;5020889;28;20048;-74
2022/01/22 03:10:20;;;;;;;;;;;;;;;-144.99;100.00;52592.81;5028458;28;20028;-73
2022/01/22 03:13:07;;;;;;;;;;;;;;;-144.99;100.00;52574.47;5019185;28;20423;-74
2022/01/22 03:15:55;;;;;;;;;;;;;;;-144.99;100.00;52562.25;5011736;28;19921;-74
2022/01/22 03:18:37;;;;;;;;;;;;;;;-144.99;100.00;52547.97;5021996;28;19972;-74
2022/01/22 03:21:11;;;;;;;;;;;;;;;-144.99;100.00;52578.53;5036786;28;20011;-74
2022/01/22 03:29:10;;;;;;;;;;;;;;;-144.99;100.00;52562.25;5013397;28;19960;-72
2022/01/22 03:31:41;;;;;;;;;;;;;;;-144.99;100.00;52582.63;5012727;28;20024;-72
2022/01/22 03:34:07;;;;;;;;;;;;;;;-144.99;100.00;52578.53;5015287;28;19929;-72
2022/01/22 03:36:34;;;;;;;;;;;;;;;-144.99;100.00;52611.16;5029805;28;20419;-72
2022/01/22 03:39:00;;;;;;;;;;;;;;;-144.99;100.00;52578.53;5022701;28;20344;-73
2022/01/22 03:41:27;;;;;;;;;;;;;;;-144.99;100.00;52611.16;5018228;28;19921;-73
2022/01/22 03:43:53;;;;;;;;;;;;;;;-144.99;100.00;52566.31;5012894;28;19921;-72
2022/01/22 03:46:21;;;;;;;;;;;;;;;-144.99;100.00;52594.84;5018620;28;19956;-72
2022/01/22 03:48:48;;;;;;;;;;;;;;;-144.99;100.00;52584.66;5011919;28;19933;-74
2022/01/22 03:51:14;;;;;;;;;;;;;;;-144.99;100.00;52603.00;5018621;28;19928;-73
2022/01/22 03:53:41;;;;;;;;;;;;;;;-144.99;100.00;52594.84;5021282;28;19921;-72
2022/01/22 03:56:09;;;;;;;;;;;;;;;-144.99;100.00;52578.53;5018376;28;19921;-74
2022/01/22 03:58:37;;;;;;;;;;;;;;;-144.99;100.00;52594.84;5022378;28;19993;-75
2022/01/22 04:01:52;;;;;;;;;;;;;;;-144.99;100.00;52594.84;5016995;28;19925;-74
2022/01/22 04:04:15;;;;;;;;;;;;;;;-144.99;100.00;52586.69;5012872;28;19994;-73
2022/01/22 04:09:31;;;;;;;;;;;;;;;-144.99;100.00;52582.63;5014969;28;20384;-74
2022/01/22 04:11:58;;;;;;;;;;;;;;;-144.99;100.00;52625.44;5019844;28;19925;-72
2022/01/22 04:14:29;;;;;;;;;;;;;;;-144.99;100.00;52570.38;5012833;28;20621;-73
2022/01/22 04:17:16;;;;;;;;;;;;;;;-144.99;100.00;52570.38;5025972;28;20350;-71
2022/01/22 04:25:23;;;;;;;;;;;;;;;-144.99;100.00;52554.09;4999758;28;19928;-72
2022/01/22 04:27:51;;;;;;;;;;;;;;;-144.99;100.00;52590.78;5030038;28;19924;-71
2022/01/22 04:30:17;;;;;;;;;;;;;;;-144.99;100.00;52582.63;5015232;28;19948;-73
2022/01/22 04:32:44;;;;;;;;;;;;;;;-144.99;100.00;52580.59;5017140;28;20388;-72
2022/01/22 04:35:12;;;;;;;;;;;;;;;-144.99;100.00;52574.47;5018309;28;19925;-73
2022/01/22 04:37:38;;;;;;;;;;;;;;;-144.99;100.00;52590.78;5029933;28;19975;-73
2022/01/22 04:40:05;;;;;;;;;;;;;;;-144.99;100.00;52574.47;5030468;28;19984;-73
2022/01/22 04:42:35;;;;;;;;;;;;;;;-144.99;100.00;52586.69;5017266;28;20422;-74
2022/01/22 04:45:07;;;;;;;;;;;;;;;-144.99;100.00;52635.63;5016822;28;20015;-74
2022/01/22 04:47:43;;;;;;;;;;;;;;;-144.99;100.00;52600.97;5019866;28;20008;-73
2022/01/22 04:55:39;;;;;;;;;;;;;;;-144.99;100.00;52590.78;5021696;28;19928;-74
2022/01/22 04:58:06;;;;;;;;;;;;;;;-144.99;100.00;52578.53;5018772;28;19921;-73
2022/01/22 05:00:33;;;;;;;;;;;;;;;-144.99;100.00;52582.63;5027900;28;19921;-73
2022/01/22 05:03:00;;;;;;;;;;;;;;;-144.99;100.00;52582.63;5012335;28;20012;-74
2022/01/22 05:05:27;;;;;;;;;;;;;;;-144.99;100.00;52594.84;5016318;28;19921;-75
2022/01/22 05:07:54;;;;;;;;;;;;;;;-144.99;100.00;52566.31;5020398;28;19933;-72
2022/01/22 05:10:21;;;;;;;;;;;;;;;-144.99;100.00;52582.63;5014336;28;19931;-73
2022/01/22 05:12:47;;;;;;;;;;;;;;;-144.99;100.00;52590.78;5012661;28;19928;-72
2022/01/22 05:15:16;;;;;;;;;;;;;;;-144.99;100.00;52574.47;5011480;28;20265;-72
2022/01/22 05:17:43;;;;;;;;;;;;;;;-144.99;100.00;52590.78;5016634;28;19928;-73
2022/01/22 05:20:15;;;;;;;;;;;;;;;-144.99;100.00;52578.53;5029325;28;19921;-73
2022/01/22 05:22:54;;;;;;;;;;;;;;;-144.99;100.00;52617.28;5036310;28;19925;-74
2022/01/22 05:25:28;;;;;;;;;;;;;;;-144.99;100.00;52578.53;5016720;28;20171;-74
2022/01/22 05:28:12;;;;;;;;;;;;;;;-144.99;100.00;52590.78;5026071;28;19921;-73
2022/01/22 05:36:55;;;;;;;;;;;;;;;-144.99;100.00;52582.63;4977216;28;20629;-75
2022/01/22 05:39:08;;;;;;;;;;;;;;;-144.99;100.00;52580.59;5018546;28;19967;-74
2022/01/22 05:41:36;;;;;;;;;;;;;;;-144.99;100.00;52603.00;5018495;28;19995;-75
2022/01/22 05:44:02;;;;;;;;;;;;;;;-144.99;100.00;52615.25;5014429;28;20019;-76
2022/01/22 05:46:29;;;;;;;;;;;;;;;-144.99;100.00;52594.84;5016956;28;19921;-77
2022/01/22 05:48:55;;;;;;;;;;;;;;;-144.99;100.00;52590.78;5027153;28;19921;-75
2022/01/22 05:51:21;;;;;;;;;;;;;;;-144.99;100.00;52590.78;5049515;22;19921;-73
2022/01/22 05:54:12;;;;;;;;;;;;;;;-144.99;100.00;52588.75;5054013;28;20804;-74
2022/01/22 05:59:37;;;;;;;;;;;;;;;-144.99;100.00;52574.47;5064665;28;19943;-73
2022/01/22 06:02:03;;;;;;;;;;;;;;;-144.99;100.00;52590.78;5061153;28;19932;-74
2022/01/22 06:04:30;;;;;;;;;;;;;;;-144.99;100.00;52570.38;5051598;28;19921;-74
2022/01/22 06:06:56;;;;;;;;;;;;;;;-144.99;100.00;52558.16;5065664;28;20682;-75
2022/01/22 06:09:24;;;;;;;;;;;;;;;-144.99;100.00;52562.25;5071816;28;19930;-74
2022/01/22 06:11:56;;;;;;;;;;;;;;;-144.99;100.00;52598.94;5063452;28;19925;-74
2022/01/22 06:14:24;;;;;;;;;;;;;;;-144.99;100.00;52623.38;5069449;28;19930;-74
2022/01/22 06:16:51;;;;;;;;;;;;;;;-144.99;100.00;52605.03;5068992;28;20278;-74
2022/01/22 06:19:17;;;;;;;;;;;;;;;-144.99;100.00;52594.84;5061346;28;19930;-74
2022/01/22 06:21:43;;;;;;;;;;;;;;;-144.99;100.00;52562.25;5062263;28;19920;-74
2022/01/22 06:24:12;;;;;;;;;;;;;;;-144.99;100.00;52580.59;5063852;28;19920;-74
2022/01/22 06:26:38;;;;;;;;;;;;;;;-144.99;100.00;52578.53;5058417;28;19921;-75
2022/01/22 06:29:06;;;;;;;;;;;;;;;-144.99;100.00;52611.16;5067959;28;20115;-75
2022/01/22 06:31:32;;;;;;;;;;;;;;;-144.99;100.00;52619.31;5067054;28;19928;-74
2022/01/22 06:33:59;;;;;;;;;;;;;;;-144.99;100.00;52586.69;5065985;28;19925;-74
2022/01/22 06:36:25;;;;;;;;;;;;;;;-144.99;100.00;52582.63;5062738;28;19958;-74
2022/01/22 06:38:56;;;;;;;;;;;;;;;-144.99;100.00;52631.53;5070087;28;19928;-74
2022/01/22 06:44:08;;;;;;;;;;;;;;;-144.99;100.00;52619.31;5079647;28;19974;-75
2022/01/22 06:46:34;;;;;;;;;;;;;;;-144.99;100.00;52554.09;5079001;28;19956;-75
2022/01/22 06:49:01;;;;;;;;;;;;;;;-144.99;100.00;52598.94;5065961;28;19921;-74
2022/01/22 06:51:27;;;;;;;;;;;;;;;-144.99;100.00;52631.53;5063157;28;20302;-74
2022/01/22 06:53:54;;;;;;;;;;;;;;;-144.99;100.00;52562.25;5064640;28;19940;-74
2022/01/22 06:56:21;;;;;;;;;;;;;;;-144.99;100.00;52592.81;5063728;28;20466;-74
2022/01/22 06:58:48;;;;;;;;;;;;;;;-144.99;100.00;52564.28;5065095;28;19963;-74
2022/01/22 07:01:16;;;;;;;;;;;;;;;-144.99;100.00;52590.78;5057121;28;19920;-75
2022/01/22 07:03:43;;;;;;;;;;;;;;;-144.99;100.00;52623.38;5066367;28;19920;-75
2022/01/22 07:06:09;;;;;;;;;;;;;;;-144.99;100.00;52570.38;5062002;28;19920;-75
2022/01/22 07:08:36;;;;;;;;;;;;;;;-144.99;100.00;52598.94;5069155;28;20366;-74
2022/01/22 07:11:02;;;;;;;;;;;;;;;-144.99;100.00;52598.94;5073052;28;19962;-75
2022/01/22 07:13:28;;;;;;;;;;;;;;;-144.99;100.00;52592.81;5073914;28;19928;-74
2022/01/22 07:15:55;;;;;;;;;;;;;;;-144.99;100.00;52596.88;5069631;28;19920;-74
2022/01/22 07:18:22;;;;;;;;;;;;;;;-144.99;100.00;52611.16;5071300;28;19920;-74
2022/01/22 07:20:51;;;;;;;;;;;;;;;-144.99;100.00;52578.53;5071548;28;19920;-74
2022/01/22 07:23:21;;;;;;;;;;;;;;;-144.99;100.00;52582.63;5071489;28;19991;-74
2022/01/22 07:25:47;;;;;;;;;;;;;;;-144.99;100.00;52598.94;5063350;28;19927;-75
2022/01/22 07:28:14;;;;;;;;;;;;;;;-144.99;100.00;52603.00;5069816;28;19924;-74
2022/01/22 07:30:40;;;;;;;;;;;;;;;-144.99;100.00;52598.94;5067392;28;19920;-74
2022/01/22 07:33:07;;;;;;;;;;;;;;;-144.99;100.00;52566.31;5057942;28;20311;-75
2022/01/22 07:35:34;;;;;;;;;;;;;;;-144.99;100.00;52611.16;5065733;28;19920;-74
2022/01/22 07:38:01;;;;;;;;;;;;;;;-144.99;100.00;52582.63;5073168;28;19956;-75
2022/01/22 07:40:28;;;;;;;;;;;;;;;-144.99;100.00;52570.38;5062909;28;19920;-75
2022/01/22 07:42:55;;;;;;;;;;;;;;;-144.99;100.00;52574.47;5064673;28;20405;-75
2022/01/22 07:45:21;;;;;;;;;;;;;;;-144.99;100.00;52574.47;5056370;28;20409;-75
2022/01/22 07:47:48;;;;;;;;;;;;;;;-144.99;100.00;52615.25;5060921;28;19920;-74
2022/01/22 07:50:14;;;;;;;;;;;;;;;-144.99;100.00;52574.47;5066528;28;20405;-75
2022/01/22 07:52:42;;;;;;;;;;;;;;;-144.99;100.00;52598.94;5084855;28;19931;-75
2022/01/22 07:55:08;;;;;;;;;;;;;;;-144.99;100.00;52590.78;5085740;28;20437;-75
2022/01/22 07:57:37;;;;;;;;;;;;;;;-144.99;100.00;52590.78;5080694;28;19924;-74
2022/01/22 08:00:05;;;;;;;;;;;;;;;-144.99;100.00;52556.13;5082411;28;19946;-75
2022/01/22 08:02:31;;;;;;;;;;;;;;;-144.99;100.00;52607.09;5088114;28;19920;-74
2022/01/22 08:04:58;;;;;;;;;;;;;;;-144.99;100.00;52582.63;5087603;28;19932;-75
2022/01/22 08:07:24;;;;;;;;;;;;;;;-144.99;100.00;52545.94;5083404;28;20341;-75
2022/01/22 08:09:52;;;;;;;;;;;;;;;-144.99;100.00;52574.47;5084549;28;20214;-74
2022/01/22 08:12:18;;;;;;;;;;;;;;;-144.99;100.00;52598.94;5081284;28;19975;-76
2022/01/22 08:14:47;;;;;;;;;;;;;;;-144.99;100.00;52594.84;5082390;28;19920;-76
2022/01/22 08:17:13;;;;;;;;;;;;;;;-144.99;100.00;52574.47;5087665;28;19924;-75
2022/01/22 08:19:43;;;;;;;;;;;;;;;-144.99;100.00;52578.53;5087676;28;19921;-76
2022/01/22 08:22:10;;;;;;;;;;;;;;;-144.99;100.00;52611.16;5082118;28;19920;-75
2022/01/22 08:24:36;;;;;;;;;;;;;;;-144.99;100.00;52578.53;5075293;28;20003;-76
2022/01/22 08:27:12;;;;;;;;;;;;;;;-144.99;100.00;52590.78;5085936;28;19928;-76
2022/01/22 08:29:39;;;;;;;;;;;;;;;-144.99;100.00;52578.53;5087815;28;19933;-76
2022/01/22 08:32:10;;;;;;;;;;;;;;;-144.99;100.00;52623.38;5089421;28;19928;-77
2022/01/22 08:37:21;;;;;;;;;;;;;;;-144.99;100.00;52598.94;5085338;28;19930;-75
2022/01/22 08:39:48;;;;;;;;;;;;;;;-144.99;100.00;52598.94;5082428;28;20007;-74
2022/01/22 08:42:15;;;;;;;;;;;;;;;-144.99;100.00;52574.47;5084497;28;19927;-75
2022/01/22 08:44:42;;;;;;;;;;;;;;;-144.99;100.00;52545.94;5087107;28;19920;-75
2022/01/22 08:47:08;;;;;;;;;;;;;;;-144.99;100.00;52558.16;5087771;28;19927;-76
2022/01/22 08:49:35;;;;;;;;;;;;;;;-144.99;100.00;52590.78;5091535;28;19931;-78
2022/01/22 08:52:01;;;;;;;;;;;;;;;-144.99;100.00;52627.47;5082466;28;19931;-75
2022/01/22 08:54:28;;;;;;;;;;;;;;;-144.99;100.00;52578.53;5079168;28;19967;-76
2022/01/22 08:56:54;;;;;;;;;;;;;;;-144.99;100.00;52558.16;5085282;28;19935;-74
2022/01/22 08:59:22;;;;;;;;;;;;;;;-144.99;100.00;52576.50;5076103;28;19920;-75
2022/01/22 09:01:49;;;;;;;;;;;;;;;-144.99;100.00;52631.53;5080141;28;19960;-75
2022/01/22 09:04:16;;;;;;;;;;;;;;;-144.99;100.00;52541.84;5084425;28;19921;-76
2022/01/22 09:06:43;;;;;;;;;;;;;;;-144.99;100.00;52564.28;5072700;28;19921;-77
2022/01/22 09:09:11;;;;;;;;;;;;;;;-144.99;100.00;52592.81;5055928;28;19972;-75
2022/01/22 09:11:42;;;;;;;;;;;;;;;-144.99;100.00;52568.34;5061561;28;20027;-74
2022/01/22 09:14:10;;;;;;;;;;;;;;;-144.99;100.00;52554.09;5059732;28;19932;-74
2022/01/22 09:16:41;;;;;;;;;;;;;;;-144.99;100.00;52586.69;5064854;28;19920;-74
2022/01/22 09:19:11;;;;;;;;;;;;;;;-144.99;100.00;52586.69;5068038;28;19920;-74
2022/01/22 09:21:39;;;;;;;;;;;;;;;-144.99;100.00;52578.53;5058841;28;19927;-74
2022/01/22 09:24:06;;;;;;;;;;;;;;;-144.99;100.00;52550.00;5063781;28;19964;-76
2022/01/22 09:26:32;;;;;;;;;;;;;;;-144.99;100.00;52590.78;5054880;28;19944;-76
2022/01/22 09:29:00;;;;;;;;;;;;;;;-144.99;100.00;52594.84;5067276;28;20401;-76
2022/01/22 09:31:27;;;;;;;;;;;;;;;-144.99;100.00;52566.31;5073166;28;19925;-79
2022/01/22 09:33:57;;;;;;;;;;;;;;;-144.99;100.00;52611.16;5072555;28;20433;-76
2022/01/22 09:36:23;;;;;;;;;;;;;;;-144.99;100.00;52607.09;5072854;28;19924;-76
2022/01/22 09:38:50;;;;;;;;;;;;;;;-144.99;100.00;52570.38;5071658;28;19920;-75
2022/01/22 09:41:16;;;;;;;;;;;;;;;-144.99;100.00;52574.47;5072587;28;19920;-75
2022/01/22 09:43:43;;;;;;;;;;;;;;;-144.99;100.00;52586.69;5067888;28;20434;-74
2022/01/22 09:46:09;;;;;;;;;;;;;;;-144.99;100.00;52598.94;5064986;28;19925;-75
2022/01/22 09:48:40;;;;;;;;;;;;;;;-144.99;100.00;52545.94;5068524;28;19927;-74
2022/01/22 09:51:07;;;;;;;;;;;;;;;-144.99;100.00;52607.09;5072007;28;19920;-76
2022/01/22 09:53:34;;;;;;;;;;;;;;;-144.99;100.00;52570.38;5071267;28;19920;-75
2022/01/22 09:56:00;;;;;;;;;;;;;;;-144.99;100.00;52550.00;5066313;28;19927;-74
2022/01/22 09:58:27;;;;;;;;;;;;;;;-144.99;100.00;52541.84;5065406;28;19936;-74
2022/01/22 10:00:53;;;;;;;;;;;;;;;-144.99;100.00;52629.50;5072014;28;20015;-75
2022/01/22 10:03:21;;;;;;;;;;;;;;;-144.99;100.00;52570.38;5073542;28;19924;-75
2022/01/22 10:05:53;;;;;;;;;;;;;;;-144.99;100.00;52570.38;5059033;28;19960;-74
2022/01/22 10:08:24;;;;;;;;;;;;;;;-144.99;100.00;52582.63;5070852;28;19982;-74
2022/01/22 10:10:53;;;;;;;;;;;;;;;-144.99;100.00;52570.38;5069036;28;20519;-74
2022/01/22 10:13:42;;;;;;;;;;;;;;;-144.99;100.00;52590.78;5066870;28;19920;-74
2022/01/22 10:16:30;;;;;;;;;;;;;;;-144.99;100.00;52570.38;5071223;28;19971;-74
2022/01/22 10:19:13;;;;;;;;;;;;;;;-144.99;100.00;52578.53;5065545;28;20015;-74
2022/01/22 10:21:41;;;;;;;;;;;;;;;-144.99;100.00;52594.84;5056737;28;20430;-74
2022/01/22 10:24:30;;;;;;;;;;;;;;;-144.99;100.00;52537.78;5059315;28;19920;-75
2022/01/22 10:27:23;;;;;;;;;;;;;;;-144.99;100.00;52603.00;5065983;28;19921;-75
2022/01/22 10:29:52;;;;;;;;;;;;;;;-144.99;100.00;52574.47;5057699;28;19920;-73
2022/01/22 10:32:19;;;;;;;;;;;;;;;-144.99;100.00;52562.25;5071814;28;19924;-75
2022/01/22 10:34:45;;;;;;;;;;;;;;;-144.99;100.00;52541.84;5070796;28;19949;-75
2022/01/22 10:37:12;;;;;;;;;;;;;;;-144.99;100.00;52570.38;5070108;28;19920;-75
2022/01/22 10:39:39;;;;;;;;;;;;;;;-144.99;100.00;52578.53;5072201;28;19924;-75
2022/01/22 10:42:18;;;;;;;;;;;;;;;-144.99;100.00;52578.53;5072427;28;19925;-75
2022/01/22 10:44:48;;;;;;;;;;;;;;;-144.99;100.00;52558.16;5072095;28;19927;-75
2022/01/22 10:47:18;;;;;;;;;;;;;;;-144.99;100.00;52592.81;5071625;28;19953;-75
2022/01/22 10:49:44;;;;;;;;;;;;;;;-144.99;100.00;52582.63;5070927;28;19924;-74
2022/01/22 10:52:11;;;;;;;;;;;;;;;-144.99;100.00;52588.75;5071757;28;20458;-75
2022/01/22 10:54:38;;;;;;;;;;;;;;;-144.99;100.00;52562.25;5064189;28;20023;-75
2022/01/22 10:57:12;;;;;;;;;;;;;;;-144.99;100.00;52594.84;5064892;28;19927;-75
2022/01/22 10:59:44;;;;;;;;;;;;;;;-144.99;100.00;52603.00;5065017;28;19928;-75
2022/01/22 11:02:12;;;;;;;;;;;;;;;-144.99;100.00;52576.50;5071582;28;20410;-75
2022/01/22 11:04:42;;;;;;;;;;;;;;;-144.99;100.00;52570.38;5070500;28;20379;-74
2022/01/22 11:07:10;;;;;;;;;;;;;;;-144.99;100.00;52590.78;5057536;28;19925;-74
2022/01/22 11:09:36;;;;;;;;;;;;;;;-144.99;100.00;52574.47;5067772;28;20019;-75
2022/01/22 11:12:05;;;;;;;;;;;;;;;-144.99;100.00;52550.00;5070464;28;19927;-75
2022/01/22 11:14:34;;;;;;;;;;;;;;;-144.99;100.00;52586.69;5071420;28;19927;-77
2022/01/22 11:17:00;;;;;;;;;;;;;;;-144.99;100.00;52566.31;5062282;28;20019;-74
2022/01/22 11:19:30;;;;;;;;;;;;;;;-144.99;100.00;52582.63;5058305;28;19944;-74
2022/01/22 11:22:00;;;;;;;;;;;;;;;-144.99;100.00;52562.25;5069865;28;20379;-75
2022/01/22 11:24:26;;;;;;;;;;;;;;;-144.99;100.00;52554.09;5063076;28;19943;-75
2022/01/22 11:26:53;;;;;;;;;;;;;;;-144.99;100.00;52574.47;5063067;28;19929;-74
2022/01/22 11:29:22;;;;;;;;;;;;;;;-144.99;100.00;52611.16;5065385;28;19920;-75
2022/01/22 11:31:51;;;;;;;;;;;;;;;-144.99;100.00;52574.47;5073108;28;19974;-74
2022/01/22 11:34:20;;;;;;;;;;;;;;;-144.99;100.00;52582.63;5067595;28;19968;-75
2022/01/22 11:36:51;;;;;;;;;;;;;;;-144.99;100.00;52582.63;5064947;28;20306;-74
2022/01/22 11:39:19;;;;;;;;;;;;;;;-144.99;100.00;52594.84;5070829;28;20433;-74
2022/01/22 11:41:50;;;;;;;;;;;;;;;-144.99;100.00;52562.25;5072044;28;19939;-76
2022/01/22 11:44:24;;;;;;;;;;;;;;;-144.99;100.00;52607.09;5077529;28;20290;-76
2022/01/22 11:47:06;;;;;;;;;;;;;;;-144.99;100.00;52590.78;5074904;28;19930;-77
2022/01/22 11:49:36;;;;;;;;;;;;;;;-144.99;100.00;52558.16;5074308;28;20421;-74
2022/01/22 11:52:30;;;;;;;;;;;;;;;-144.99;100.00;52619.31;5074011;28;19924;-74
2022/01/22 11:54:59;;;;;;;;;;;;;;;-144.99;100.00;52582.63;5059108;28;19928;-74
2022/01/22 11:57:27;;;;;;;;;;;;;;;-144.99;100.00;52598.94;5073995;28;20015;-75
2022/01/22 12:00:12;;;;;;;;;;;;;;;-144.99;100.00;52590.78;5074811;28;19950;-75
2022/01/22 12:02:40;;;;;;;;;;;;;;;-144.99;100.00;52594.84;5075623;28;19933;-75
2022/01/22 12:05:07;;;;;;;;;;;;;;;-144.99;100.00;52605.03;5074524;28;20381;-75
2022/01/22 12:07:36;;;;;;;;;;;;;;;-144.99;100.00;52580.59;5075829;28;19920;-76
2022/01/22 12:10:17;;;;;;;;;;;;;;;-144.99;100.00;52574.47;5074617;28;19928;-76
2022/01/22 12:15:44;;;;;;;;;;;;;;;-144.99;100.00;52590.78;5073038;28;20029;-75
2022/01/22 12:18:15;;;;;;;;;;;;;;;-144.99;100.00;52570.38;5057668;28;19971;-76
2022/01/22 12:23:47;;;;;;;;;;;;;;;-144.99;100.00;52590.78;5049604;28;19940;-77
2022/01/22 12:26:13;;;;;;;;;;;;;;;-144.99;100.00;52543.91;5053549;28;19975;-78
2022/01/22 12:28:40;;;;;;;;;;;;;;;-144.99;100.00;52598.94;5054700;28;19928;-79
2022/01/22 12:31:10;;;;;;;;;;;;;;;-144.99;100.00;52578.53;5066902;28;19952;-76
2022/01/22 12:33:47;;;;;;;;;;;;;;;-144.99;100.00;52529.63;5063125;28;19984;-76
2022/01/22 12:36:22;;;;;;;;;;;;;;;-144.99;100.00;52615.25;5065438;28;19948;-74
2022/01/22 12:38:58;;;;;;;;;;;;;;;-144.99;100.00;52550.00;5050475;28;20015;-76
2022/01/22 12:41:31;;;;;;;;;;;;;;;-144.99;100.00;52550.00;5066945;28;20384;-72
2022/01/22 12:44:05;;;;;;;;;;;;;;;-144.99;100.00;52574.47;5052209;28;20298;-74
2022/01/22 12:46:32;;;;;;;;;;;;;;;-144.99;100.00;52564.28;5043831;28;19925;-75
2022/01/22 12:48:59;;;;;;;;;;;;;;;-144.99;100.00;52566.31;5033595;28;19932;-74
2022/01/22 12:51:26;;;;;;;;;;;;;;;-144.99;100.00;52545.94;5052325;28;19929;-71
2022/01/22 12:53:53;;;;;;;;;;;;;;;-144.99;100.00;52564.28;5050989;28;20300;-73
2022/01/22 12:56:49;;;;;;;;;;;;;;;-144.99;100.00;52576.50;5034124;28;20117;-73
2022/01/22 12:59:16;;;;;;;;;;;;;;;-144.99;100.00;52588.75;5037204;28;19929;-76
2022/01/22 13:01:44;;;;;;;;;;;;;;;-144.99;100.00;52588.75;5051075;28;19929;-71
2022/01/22 13:04:11;;;;;;;;;;;;;;;-144.99;100.00;52590.78;5050650;28;19932;-71
2022/01/22 13:06:42;;;;;;;;;;;;;;;-144.99;100.00;52590.78;5051241;28;19924;-73
2022/01/22 13:09:11;;;;;;;;;;;;;;;-144.99;100.00;52562.25;5042001;28;20339;-72
2022/01/22 13:11:45;;;;;;;;;;;;;;;-144.99;100.00;52594.84;5050999;28;19964;-71
2022/01/22 13:14:11;;;;;;;;;;;;;;;-144.99;100.00;52566.31;5050706;28;19971;-72
2022/01/22 13:16:45;;;;;;;;;;;;;;;-144.99;100.00;52574.47;5047493;28;19932;-74
2022/01/22 13:19:14;;;;;;;;;;;;;;;-144.99;100.00;52594.84;5031174;28;19933;-73
2022/01/22 13:21:48;;;;;;;;;;;;;;;-144.99;100.00;52578.53;5034388;28;19986;-73
2022/01/22 13:24:14;;;;;;;;;;;;;;;-144.99;100.00;52566.31;5043374;28;19929;-71
2022/01/22 13:26:43;;;;;;;;;;;;;;;-144.99;100.00;52594.84;5035474;28;20139;-71
2022/01/22 13:29:22;;;;;;;173.70;74.90;;;;;;;-144.99;100.00;52635.63;5028780;28;25059;-72
2022/01/22 13:32:04;;;;;;;203.57;82.67;;;;;;;-144.99;100.00;52590.78;5025041;28;20345;-72
2022/01/22 13:34:52;;;;;;;192.97;80.00;;;;;;;-144.99;100.00;52566.31;5039041;28;20630;-70